Time;durP1;ratioP1;P1;durP2;ratioP2;P2;SDS_P1;SDS_P2;PMS_P1;PMS_P2;Temp;Humidity;BMP_temperature;BMP_pressure;BME280_temperature;BME280_humidity;BME280_pressure;Samples;Min_cycle;Max_cycle;Signal;HPM_P1;HPM_P2
2024/04/11 00:03:12;;;;;;;9.97;1.60;;;;;12.10;102427.00;;;;11138565;26;20353;-81
2024/04/11 00:08:13;;;;;;;7.70;1.60;;;;;12.10;102417.00;;;;11125216;26;20248;-80
2024/04/11 00:13:17;;;;;;;8.07;1.67;;;;;12.20;102404.00;;;;11114940;26;20336;-83
2024/04/11 00:18:25;;;;;;;6.80;1.70;;;;;12.20;102382.00;;;;11146698;26;20263;-81
2024/04/11 00:23:26;;;;;;;8.00;2.03;;;;;12.10;102398.00;;;;11105635;26;20296;-82
2024/04/11 00:28:28;;;;;;;7.13;1.63;;;;;12.10;102383.00;;;;11126949;26;21111;-81
2024/04/11 00:33:30;;;;;;;8.13;1.63;;;;;12.10;102384.00;;;;11114244;26;20260;-82
2024/04/11 00:38:33;;;;;;;6.67;1.50;;;;;12.10;102391.00;;;;11103501;26;20252;-82
2024/04/11 00:43:34;;;;;;;7.97;1.90;;;;;12.10;102386.00;;;;11056691;26;20346;-82
2024/04/11 00:48:38;;;;;;;7.87;1.90;;;;;12.20;102405.00;;;;11132821;26;20294;-81
2024/04/11 00:53:40;;;;;;;7.23;2.10;;;;;12.30;102421.00;;;;11113071;26;20308;-81
2024/04/11 00:58:42;;;;;;;2.83;1.17;;;;;12.30;102420.00;;;;11146037;26;20253;-81
2024/04/11 01:03:46;;;;;;;9.50;1.70;;;;;12.30;102415.00;;;;11106356;26;20881;-81
2024/04/11 01:08:51;;;;;;;7.00;1.33;;;;;12.30;102426.00;;;;11040683;26;20258;-81
2024/04/11 01:13:52;;;;;;;6.30;1.33;;;;;12.30;102413.00;;;;11107288;26;20252;-81
2024/04/11 01:18:55;;;;;;;7.70;1.33;;;;;12.30;102413.00;;;;11108893;26;20353;-82
2024/04/11 01:24:00;;;;;;;5.90;1.43;;;;;12.30;102409.00;;;;11110660;26;20291;-82
2024/04/11 01:29:02;;;;;;;8.83;1.70;;;;;12.30;102409.00;;;;11087846;26;20284;-82
2024/04/11 01:34:04;;;;;;;4.50;1.60;;;;;12.30;102400.00;;;;11082077;26;20731;-82
2024/04/11 01:39:09;;;;;;;7.97;1.60;;;;;12.20;102393.00;;;;11076272;26;20386;-80
2024/04/11 01:44:10;;;;;;;4.80;1.47;;;;;12.20;102388.00;;;;11061342;26;20303;-83
2024/04/11 01:49:11;;;;;;;4.73;1.20;;;;;12.10;102383.00;;;;11113061;26;20387;-83
2024/04/11 01:54:13;;;;;;;6.50;1.17;;;;;12.00;102381.00;;;;11076747;26;20260;-82
2024/04/11 01:59:19;;;;;;;6.70;1.37;;;;;12.00;102395.00;;;;11108545;26;20252;-81
2024/04/11 02:04:21;;;;;;;9.13;1.53;;;;;12.00;102405.00;;;;11104700;26;20265;-81
2024/04/11 02:09:23;;;;;;;7.53;1.70;;;;;12.10;102393.00;;;;11084152;26;20249;-81
2024/04/11 02:14:24;;;;;;;5.27;1.50;;;;;12.20;102403.00;;;;11141364;26;20260;-81
2024/04/11 02:19:26;;;;;;;8.30;1.67;;;;;12.20;102400.00;;;;11107892;26;20256;-81
2024/04/11 02:24:27;;;;;;;5.77;1.47;;;;;12.30;102410.00;;;;11060629;26;20300;-82
2024/04/11 02:29:29;;;;;;;5.40;1.60;;;;;12.40;102421.00;;;;11114871;26;20300;-81
2024/04/11 02:34:30;;;;;;;4.77;1.53;;;;;12.40;102424.00;;;;11072071;26;20287;-82
2024/04/11 02:39:32;;;;;;;9.00;1.57;;;;;12.50;102425.00;;;;11104882;26;20299;-81
2024/04/11 02:44:34;;;;;;;3.67;1.10;;;;;12.60;102427.00;;;;11114337;26;20291;-81
2024/04/11 02:49:36;;;;;;;5.83;1.20;;;;;12.60;102424.00;;;;11100798;26;20288;-81
2024/04/11 02:54:37;;;;;;;4.93;1.63;;;;;12.70;102410.00;;;;11111485;26;20705;-83
2024/04/11 02:59:38;;;;;;;4.63;1.70;;;;;12.70;102406.00;;;;11075980;26;22039;-82
2024/04/11 03:04:42;;;;;;;5.70;1.70;;;;;12.70;102401.00;;;;11114048;26;20260;-81
2024/04/11 03:09:44;;;;;;;6.17;1.67;;;;;12.70;102412.00;;;;11103402;26;20253;-82
2024/04/11 03:14:49;;;;;;;4.87;1.50;;;;;12.70;102401.00;;;;11117834;26;20290;-81
2024/04/11 03:19:50;;;;;;;9.17;1.73;;;;;12.60;102400.00;;;;11087623;26;20249;-81
2024/04/11 03:24:52;;;;;;;6.83;1.70;;;;;12.60;102414.00;;;;11089107;26;20268;-87
2024/04/11 03:29:53;;;;;;;6.90;1.53;;;;;12.60;102405.00;;;;11095924;26;20296;-87
2024/04/11 03:34:55;;;;;;;6.30;1.50;;;;;12.60;102394.00;;;;11116721;26;20283;-86
2024/04/11 03:39:57;;;;;;;7.00;1.53;;;;;12.60;102411.00;;;;11123877;26;20307;-86
2024/04/11 03:45:10;;;;;;;5.03;1.60;;;;;12.60;102399.00;;;;11154647;26;20295;-86
2024/04/11 03:50:14;;;;;;;4.20;1.30;;;;;12.60;102389.00;;;;11147194;26;20283;-87
2024/04/11 03:55:18;;;;;;;7.40;1.40;;;;;12.60;102403.00;;;;11123383;26;20276;-85
2024/04/11 04:00:23;;;;;;;9.30;1.70;;;;;12.60;102402.00;;;;11119946;26;20289;-87
2024/04/11 04:05:26;;;;;;;3.80;1.70;;;;;12.60;102400.00;;;;11119491;26;20251;-84
2024/04/11 04:10:27;;;;;;;7.10;2.13;;;;;12.50;102397.00;;;;11172753;26;20240;-87
2024/04/11 04:15:30;;;;;;;4.00;1.17;;;;;12.50;102400.00;;;;11152547;26;20312;-89
2024/04/11 04:20:32;;;;;;;4.60;1.43;;;;;12.50;102395.00;;;;11116346;26;20362;-86
2024/04/11 04:25:33;;;;;;;4.50;1.50;;;;;12.60;102396.00;;;;11093982;26;20275;-86
2024/04/11 04:30:35;;;;;;;7.90;1.33;;;;;12.60;102396.00;;;;11120604;26;20719;-88
2024/04/11 04:35:36;;;;;;;7.27;2.30;;;;;12.50;102395.00;;;;11082708;26;20696;-79
2024/04/11 04:40:37;;;;;;;6.33;1.60;;;;;12.50;102400.00;;;;11069563;26;20261;-79
2024/04/11 04:45:44;;;;;;;6.93;1.40;;;;;12.50;102388.00;;;;11106344;26;20264;-79
2024/04/11 04:50:46;;;;;;;8.27;1.40;;;;;12.50;102400.00;;;;11056145;26;20290;-78
2024/04/11 04:55:48;;;;;;;3.97;1.40;;;;;12.50;102391.00;;;;11081715;26;20348;-79
2024/04/11 05:00:52;;;;;;;6.53;1.77;;;;;12.50;102381.00;;;;11074979;26;20300;-79
2024/04/11 05:05:54;;;;;;;7.60;2.03;;;;;12.50;102376.00;;;;11079813;26;20621;-79
2024/04/11 05:10:56;;;;;;;5.20;1.40;;;;;12.50;102377.00;;;;11115948;26;20363;-79
2024/04/11 05:15:58;;;;;;;6.20;1.40;;;;;12.50;102374.00;;;;11075762;26;20340;-79
2024/04/11 05:21:01;;;;;;;5.33;1.30;;;;;12.50;102386.00;;;;11099434;26;20265;-79
2024/04/11 05:26:07;;;;;;;8.03;1.80;;;;;12.50;102377.00;;;;11102813;26;20256;-79
2024/04/11 05:31:09;;;;;;;4.70;1.70;;;;;12.40;102386.00;;;;11099721;26;20253;-80
2024/04/11 05:36:17;;;;;;;6.63;1.80;;;;;12.40;102377.00;;;;11092542;26;20265;-79
2024/04/11 05:41:19;;;;;;;7.20;1.73;;;;;12.40;102367.00;;;;11092459;26;20291;-79
2024/04/11 05:46:22;;;;;;;9.43;1.77;;;;;12.50;102365.00;;;;11100655;26;21408;-79
2024/04/11 05:51:23;;;;;;;2.73;1.37;;;;;12.50;102376.00;;;;11079383;26;20726;-79
2024/04/11 05:56:25;;;;;;;9.30;1.63;;;;;12.70;102398.00;;;;11108387;26;20303;-79
2024/04/11 06:01:33;;;;;;;11.40;1.87;;;;;12.80;102413.00;;;;11120738;26;20260;-79
2024/04/11 06:06:35;;;;;;;5.97;1.80;;;;;13.10;102429.00;;;;11106980;26;20295;-79
2024/04/11 06:11:39;;;;;;;9.27;1.80;;;;;13.30;102439.00;;;;11109275;26;20245;-80
2024/04/11 06:16:41;;;;;;;7.07;1.97;;;;;13.50;102444.00;;;;11125906;26;20879;-79
2024/04/11 06:21:47;;;;;;;7.37;1.73;;;;;13.70;102446.00;;;;11118809;26;20307;-79
2024/04/11 06:26:50;;;;;;;6.33;2.20;;;;;13.90;102463.00;;;;11103134;26;20724;-79
2024/04/11 06:31:51;;;;;;;7.83;1.73;;;;;13.90;102478.00;;;;11103058;26;20260;-79
2024/04/11 06:36:54;;;;;;;6.57;1.80;;;;;13.90;102477.00;;;;11109815;26;20368;-79
2024/04/11 06:41:55;;;;;;;3.40;1.43;;;;;14.00;102481.00;;;;11073742;26;21248;-80
2024/04/11 06:46:57;;;;;;;10.80;2.23;;;;;13.90;102476.00;;;;11114551;26;20294;-79
2024/04/11 06:51:59;;;;;;;5.57;1.70;;;;;13.80;102474.00;;;;11069239;26;20274;-88
2024/04/11 06:57:03;;;;;;;5.87;1.97;;;;;13.60;102471.00;;;;11082402;26;20303;-90
2024/04/11 07:02:07;;;;;;;6.03;2.50;;;;;13.70;102473.00;;;;11172369;26;20331;-83
2024/04/11 07:07:08;;;;;;;7.90;2.30;;;;;13.70;102472.00;;;;11104053;26;20256;-91
2024/04/11 07:12:10;;;;;;;6.10;1.87;;;;;13.80;102483.00;;;;11075297;26;20357;-90
2024/04/11 07:17:12;;;;;;;5.73;2.63;;;;;13.90;102480.00;;;;11089446;26;20568;-89
2024/04/11 07:22:18;;;;;;;6.83;2.03;;;;;14.10;102486.00;;;;11113480;26;20283;-86
2024/04/11 07:27:19;;;;;;;7.67;1.97;;;;;14.10;102493.00;;;;11116216;26;20310;-91
2024/04/11 07:32:21;;;;;;;7.45;2.42;;;;;14.10;102490.00;;;;11088374;26;20256;-87
2024/04/11 07:37:25;;;;;;;8.23;2.03;;;;;14.40;102491.00;;;;11119733;26;20276;-89
2024/04/11 07:42:54;;;;;;;7.97;2.60;;;;;14.90;102491.00;;;;11126695;26;20268;-88
2024/04/11 07:47:49;;;;;;;6.70;2.10;;;;;15.30;102513.00;;;;11091676;26;20262;-89
2024/04/11 07:52:59;;;;;;;5.15;2.15;;;;;15.50;102500.00;;;;11100686;26;20256;-87
2024/04/11 07:58:05;;;;;;;7.90;2.50;;;;;15.80;102511.00;;;;11123689;26;20257;-88
2024/04/11 08:03:07;;;;;;;4.97;2.15;;;;;15.80;102514.00;;;;11111715;26;20581;-90
2024/04/11 08:08:08;;;;;;;9.07;2.63;;;;;15.40;102525.00;;;;11141237;26;21119;-89
2024/04/11 08:13:10;;;;;;;9.10;2.65;;;;;15.10;102532.00;;;;11108577;26;20257;-87
2024/04/11 08:18:12;;;;;;;7.47;2.50;;;;;14.70;102546.00;;;;11108061;26;20304;-89
2024/04/11 08:23:19;;;;;;;5.18;2.40;;;;;14.40;102559.00;;;;11142003;26;20684;-87
2024/04/11 08:28:23;;;;;;;5.90;2.13;;;;;14.20;102558.00;;;;11102577;26;20264;-87
2024/04/11 08:33:24;;;;;;;13.00;2.80;;;;;13.90;102564.00;;;;11104461;26;20256;-87
2024/04/11 08:38:28;;;;;;;7.28;2.38;;;;;13.70;102568.00;;;;11098043;26;20257;-88
2024/04/11 08:43:30;;;;;;;7.57;2.63;;;;;13.60;102574.00;;;;11105338;26;20261;-86
2024/04/11 09:14:29;;;;;;;6.90;3.10;;;;;14.10;102596.00;;;;3699483;22;20656;-92
2024/04/11 09:19:39;;;;;;;4.20;1.98;;;;;14.00;102598.00;;;;10463318;27;20354;-78
2024/04/11 09:24:44;;;;;;;6.60;3.30;;;;;14.10;102591.00;;;;10448658;28;20366;-78
2024/04/11 09:29:46;;;;;;;11.27;3.27;;;;;14.30;102599.00;;;;10423559;27;20267;-77
2024/04/11 09:34:50;;;;;;;7.93;3.22;;;;;14.70;102607.00;;;;10435658;28;20267;-80
2024/04/11 09:39:56;;;;;;;8.02;3.30;;;;;15.20;102613.00;;;;10427863;27;20305;-77
2024/04/11 09:45:00;;;;;;;9.77;3.53;;;;;15.70;102612.00;;;;10430138;27;21066;-78
2024/04/11 09:50:09;;;;;;;12.55;3.45;;;;;16.30;102624.00;;;;10435854;27;20777;-77
2024/04/11 09:55:15;;;;;;;9.48;3.80;;;;;17.20;102618.00;;;;10406604;28;20263;-80
2024/04/11 10:00:48;;;;;;;8.90;3.47;;;;;18.10;102616.00;;;;10398933;27;20833;-78
2024/04/11 10:05:50;;;;;;;6.15;2.95;;;;;18.70;102620.00;;;;10426643;27;20271;-78
2024/04/11 10:10:58;;;;;;;8.15;3.08;;;;;19.40;102617.00;;;;10447985;27;20405;-78
2024/04/11 10:16:29;;;;;;;6.55;2.80;;;;;20.10;102617.00;;;;10435931;27;20267;-76
2024/04/11 10:21:32;;;;;;;7.38;2.70;;;;;21.30;102638.00;;;;10464368;27;20267;-85
2024/04/11 10:26:50;;;;;;;6.88;2.45;;;;;19.80;102653.00;;;;10431165;27;20270;-87
2024/04/11 10:31:56;;;;;;;5.55;2.70;;;;;19.10;102661.00;;;;10435613;28;20388;-86
2024/04/11 10:37:04;;;;;;;8.23;3.13;;;;;18.70;102661.00;;;;10393563;28;20401;-87
2024/04/11 10:42:13;;;;;;;5.30;3.03;;;;;19.00;102661.00;;;;10424371;27;20270;-85
2024/04/11 10:47:17;;;;;;;8.05;3.60;;;;;18.80;102653.00;;;;10449372;27;20576;-85
2024/04/11 10:52:21;;;;;;;7.88;3.13;;;;;18.90;102652.00;;;;10394740;28;20289;-85
2024/04/11 10:57:27;;;;;;;6.40;3.03;;;;;18.70;102663.00;;;;10424459;28;20266;-85
2024/04/11 11:02:32;;;;;;;7.28;2.95;;;;;18.80;102673.00;;;;10403382;28;20263;-85
2024/04/11 11:07:35;;;;;;;5.22;3.08;;;;;18.50;102669.00;;;;10407743;28;20271;-85
2024/04/11 11:12:38;;;;;;;5.82;3.22;;;;;18.60;102664.00;;;;10413559;28;20271;-85
2024/04/11 11:17:39;;;;;;;6.95;3.08;;;;;18.60;102660.00;;;;10467445;27;20382;-84
2024/04/11 11:22:41;;;;;;;6.13;3.28;;;;;18.60;102654.00;;;;10404543;28;20271;-85
2024/04/11 11:27:47;;;;;;;9.20;3.45;;;;;18.50;102660.00;;;;10396193;28;20271;-85
2024/04/11 11:32:49;;;;;;;6.18;3.05;;;;;18.40;102663.00;;;;10426142;28;21049;-84
2024/04/11 11:37:50;;;;;;;5.72;3.38;;;;;18.40;102668.00;;;;10443404;27;20267;-83
2024/04/11 11:42:52;;;;;;;8.02;3.72;;;;;18.10;102678.00;;;;10435389;28;20271;-84
2024/04/11 11:47:57;;;;;;;6.95;3.70;;;;;18.20;102678.00;;;;10415486;27;20323;-84
2024/04/11 11:53:17;;;;;;;7.30;4.40;;;;;18.00;102669.00;;;;10453357;27;20852;-83
2024/04/11 11:58:18;;;;;;;5.82;3.63;;;;;18.30;102679.00;;;;10462108;27;20266;-84
2024/04/11 12:03:21;;;;;;;6.75;3.85;;;;;18.50;102673.00;;;;10425245;27;20310;-85
2024/04/11 12:08:37;;;;;;;7.50;4.30;;;;;18.40;102672.00;;;;10376507;28;20264;-83
2024/04/11 12:13:45;;;;;;;7.53;4.68;;;;;18.70;102676.00;;;;10418352;28;20310;-84
2024/04/11 12:18:47;;;;;;;8.68;5.13;;;;;18.80;102677.00;;;;10415372;28;20270;-84
2024/04/11 12:23:51;;;;;;;8.07;4.95;;;;;19.20;102681.00;;;;10425898;27;21249;-83
2024/04/11 12:28:56;;;;;;;8.38;4.97;;;;;19.40;102675.00;;;;10433271;27;20263;-84
2024/04/11 12:33:59;;;;;;;8.80;4.85;;;;;19.50;102687.00;;;;10435475;28;20315;-84
2024/04/11 12:39:12;;;;;;;7.15;5.20;;;;;19.20;102683.00;;;;10446833;27;20271;-84
2024/04/11 12:44:13;;;;;;;9.95;5.07;;;;;19.40;102671.00;;;;10410431;28;20259;-85
2024/04/11 12:49:20;;;;;;;6.07;4.93;;;;;19.20;102687.00;;;;10442801;27;20340;-84
2024/04/11 12:54:26;;;;;;;9.57;5.93;;;;;19.00;102676.00;;;;10436068;27;20283;-85
2024/04/11 12:59:29;;;;;;;10.50;5.72;;;;;18.90;102670.00;;;;10428246;28;20331;-85
2024/04/11 13:04:36;;;;;;;7.97;6.18;;;;;18.60;102675.00;;;;10418343;28;20260;-86
2024/04/11 13:09:54;;;;;;;11.80;6.38;;;;;18.30;102674.00;;;;10418461;28;20298;-85
2024/04/11 13:14:57;;;;;;;8.05;4.80;;;;;18.10;102675.00;;;;10443544;27;20296;-84
2024/04/11 13:20:04;;;;;;;11.70;5.55;;;;;18.10;102675.00;;;;10433688;27;20366;-84
2024/04/11 13:25:18;;;;;;;8.18;5.15;;;;;18.00;102678.00;;;;10396942;28;20311;-85
2024/04/11 13:30:20;;;;;;;9.32;5.45;;;;;17.80;102689.00;;;;10382735;27;20825;-85
2024/04/11 13:35:37;;;;;;;9.98;5.43;;;;;17.70;102693.00;;;;10422817;28;20381;-85
2024/04/11 13:46:08;;;;;;;9.93;5.82;;;;;17.70;102690.00;;;;10419015;28;20391;-86
2024/04/11 13:51:16;;;;;;;9.90;6.30;;;;;17.50;102691.00;;;;10432357;28;20293;-80
2024/04/11 13:56:17;;;;;;;13.77;6.70;;;;;17.40;102697.00;;;;10419191;27;20286;-79
2024/04/11 14:01:31;;;;;;;11.20;5.88;;;;;17.30;102696.00;;;;10419359;27;21853;-79
2024/04/11 14:07:17;;;;;;;10.73;6.25;;;;;17.20;102690.00;;;;10444783;27;20279;-80
2024/04/11 14:11:57;;;;;;;9.38;5.38;;;;;17.00;102689.00;;;;10421678;28;20268;-81
2024/04/11 14:16:59;;;;;;;12.27;6.35;;;;;17.00;102697.00;;;;10413273;28;20267;-80
2024/04/11 14:27:21;;;;;;;10.80;6.55;;;;;16.90;102677.00;;;;10440150;28;20301;-80
2024/04/11 14:32:29;;;;;;;13.27;7.00;;;;;16.70;102675.00;;;;10419903;27;20265;-80
2024/04/11 14:37:48;;;;;;;14.25;6.57;;;;;16.60;102674.00;;;;10426753;28;21012;-80
2024/04/11 14:42:53;;;;;;;13.93;7.45;;;;;16.50;102679.00;;;;10422000;27;20296;-79
2024/04/11 14:47:59;;;;;;;13.25;9.07;;;;;16.60;102672.00;;;;10422557;27;20829;-79
2024/04/11 14:53:01;;;;;;;12.00;8.13;;;;;17.00;102684.00;;;;10446711;28;20618;-80
2024/04/11 14:58:02;;;;;;;11.73;6.95;;;;;17.20;102688.00;;;;10414367;27;21287;-80
2024/04/11 15:03:04;;;;;;;13.13;7.25;;;;;17.20;102690.00;;;;10459079;28;20742;-83
2024/04/11 15:08:10;;;;;;;11.60;6.85;;;;;16.90;102684.00;;;;10409987;28;20356;-85
2024/04/11 15:13:11;;;;;;;11.82;5.90;;;;;16.60;102682.00;;;;10413228;27;20269;-85
2024/04/11 15:18:13;;;;;;;10.32;6.85;;;;;16.80;102686.00;;;;10412193;28;20267;-85
2024/04/11 15:23:17;;;;;;;11.10;5.45;;;;;16.90;102675.00;;;;10397305;27;21069;-86
2024/04/11 15:28:26;;;;;;;8.43;6.03;;;;;16.80;102681.00;;;;10429585;28;20299;-85
2024/04/11 15:33:31;;;;;;;7.22;5.65;;;;;16.60;102665.00;;;;10461720;28;20409;-85
2024/04/11 15:38:38;;;;;;;8.40;5.75;;;;;16.50;102648.00;;;;10441329;27;20271;-84
2024/04/11 15:43:39;;;;;;;8.25;5.50;;;;;16.30;102659.00;;;;10431925;28;20420;-85
2024/04/11 15:48:56;;;;;;;9.20;5.63;;;;;16.00;102661.00;;;;10432913;27;20625;-85
2024/04/11 15:54:00;;;;;;;9.95;5.05;;;;;16.00;102653.00;;;;10427919;27;20276;-85
2024/04/11 15:59:08;;;;;;;13.85;5.15;;;;;16.10;102660.00;;;;10440700;27;20397;-84
2024/04/11 16:04:15;;;;;;;7.82;5.60;;;;;16.00;102655.00;;;;10436355;27;20271;-85
2024/04/11 16:09:18;;;;;;;6.57;5.18;;;;;16.00;102656.00;;;;10408300;27;21176;-85
2024/04/11 16:14:23;;;;;;;7.53;5.40;;;;;16.00;102662.00;;;;10399460;28;20315;-85
2024/04/11 16:19:30;;;;;;;7.38;5.50;;;;;16.00;102660.00;;;;10420362;28;20309;-85
2024/04/11 16:24:40;;;;;;;6.95;4.45;;;;;15.80;102669.00;;;;10424749;27;20349;-85
2024/04/11 16:29:41;;;;;;;9.55;5.90;;;;;15.70;102662.00;;;;10453438;27;20616;-85
2024/04/11 16:34:43;;;;;;;8.43;5.82;;;;;15.90;102657.00;;;;10432363;27;20727;-85
2024/04/11 16:39:49;;;;;;;7.78;5.13;;;;;15.90;102647.00;;;;10417723;27;20747;-84
2024/04/11 16:50:08;;;;;;;7.15;5.25;;;;;15.50;102655.00;;;;10437797;27;20594;-85
2024/04/11 16:55:26;;;;;;;11.93;6.10;;;;;15.30;102656.00;;;;10408116;28;20268;-84
2024/04/11 17:00:27;;;;;;;10.68;6.15;;;;;15.30;102671.00;;;;10410376;27;20293;-85
2024/04/11 17:05:30;;;;;;;9.27;6.88;;;;;15.20;102671.00;;;;10433888;27;20356;-84
2024/04/11 17:10:34;;;;;;;12.02;6.72;;;;;15.10;102683.00;;;;10433096;27;20263;-83
2024/04/11 17:15:46;;;;;;;10.65;5.88;;;;;15.10;102684.00;;;;10420653;28;20307;-83
2024/04/11 17:20:48;;;;;;;10.20;7.40;;;;;15.10;102691.00;;;;10418243;28;21001;-77
2024/04/11 17:25:51;;;;;;;14.25;9.20;;;;;15.00;102682.00;;;;10406691;28;20301;-77
2024/04/11 17:35:57;;;;;;;9.23;6.27;;;;;14.70;102688.00;;;;10429773;27;20696;-78
2024/04/11 17:41:08;;;;;;;10.82;6.50;;;;;14.50;102686.00;;;;10382143;27;20363;-78
2024/04/11 17:46:09;;;;;;;10.55;6.65;;;;;14.40;102685.00;;;;10374476;28;20263;-78
2024/04/11 17:51:17;;;;;;;10.57;6.85;;;;;14.30;102676.00;;;;10440310;28;20314;-78
2024/04/11 17:56:23;;;;;;;8.43;6.85;;;;;14.30;102675.00;;;;10399645;27;20763;-78
2024/04/11 18:01:24;;;;;;;9.80;6.17;;;;;14.30;102673.00;;;;10444782;27;20290;-77
2024/04/11 18:06:38;;;;;;;10.93;7.47;;;;;14.20;102679.00;;;;10448142;28;20270;-80
2024/04/11 18:11:46;;;;;;;17.27;8.20;;;;;14.10;102675.00;;;;10429231;28;20285;-80
2024/04/11 18:16:58;;;;;;;13.87;7.93;;;;;14.10;102675.00;;;;10413681;27;20275;-79
2024/04/11 18:21:59;;;;;;;10.20;7.90;;;;;14.00;102670.00;;;;10387246;28;20283;-78
2024/04/11 18:27:11;;;;;;;12.83;7.90;;;;;14.00;102676.00;;;;10431530;28;20834;-80
2024/04/11 18:32:13;;;;;;;16.05;8.13;;;;;13.90;102681.00;;;;10432537;28;20267;-78
2024/04/11 18:37:14;;;;;;;14.67;8.73;;;;;13.80;102680.00;;;;10424004;28;20728;-77
2024/04/11 18:42:21;;;;;;;12.13;8.37;;;;;13.80;102685.00;;;;10400058;28;20736;-78
2024/04/11 18:47:42;;;;;;;18.70;8.77;;;;;13.70;102679.00;;;;10394585;28;20267;-78
2024/04/11 18:52:44;;;;;;;13.33;8.43;;;;;13.70;102688.00;;;;10419573;28;20281;-80
2024/04/11 18:57:49;;;;;;;13.43;9.13;;;;;13.70;102688.00;;;;10431385;28;20309;-77
2024/04/11 19:02:53;;;;;;;15.63;9.67;;;;;13.70;102689.00;;;;10371431;28;20937;-78
2024/04/11 19:07:54;;;;;;;12.23;9.57;;;;;13.70;102681.00;;;;10415932;27;20267;-80
2024/04/11 19:12:56;;;;;;;14.97;10.40;;;;;13.60;102687.00;;;;10436204;28;20271;-80
2024/04/11 19:17:58;;;;;;;11.93;9.60;;;;;13.60;102691.00;;;;10429371;27;20267;-80
2024/04/11 19:23:04;;;;;;;18.60;9.80;;;;;13.60;102691.00;;;;10432676;27;20278;-78
2024/04/11 19:28:13;;;;;;;17.70;9.93;;;;;13.60;102687.00;;;;10422695;27;20267;-80
2024/04/11 19:33:24;;;;;;;16.43;10.60;;;;;13.60;102693.00;;;;10378294;28;20396;-78
2024/04/11 19:38:29;;;;;;;14.07;9.50;;;;;13.60;102693.00;;;;10412298;28;20298;-80
2024/04/11 19:43:34;;;;;;;16.23;10.57;;;;;13.60;102689.00;;;;10426293;27;20264;-79
2024/04/11 19:48:35;;;;;;;15.77;10.37;;;;;13.60;102700.00;;;;10426577;27;20268;-77
2024/04/11 19:53:40;;;;;;;15.43;10.20;;;;;13.60;102707.00;;;;10435864;27;20316;-81
2024/04/11 19:58:55;;;;;;;16.57;10.50;;;;;13.60;102704.00;;;;10404473;28;20271;-79
2024/04/11 20:03:58;;;;;;;16.70;11.27;;;;;13.60;102702.00;;;;10412010;27;20268;-80
2024/04/11 20:09:00;;;;;;;17.00;10.93;;;;;13.60;102696.00;;;;10398996;28;20338;-78
2024/04/11 20:19:39;;;;;;;16.07;11.13;;;;;13.60;102720.00;;;;10402884;27;20285;-77
2024/04/11 20:24:44;;;;;;;17.87;10.50;;;;;13.60;102714.00;;;;10430492;28;20298;-80
2024/04/11 20:29:46;;;;;;;13.20;11.57;;;;;13.60;102715.00;;;;10408478;28;20331;-80
2024/04/11 20:34:52;;;;;;;17.70;12.03;;;;;13.60;102717.00;;;;10443010;27;20722;-80
2024/04/11 20:40:00;;;;;;;14.57;11.33;;;;;13.70;102728.00;;;;10404720;28;20279;-78
2024/04/11 20:45:11;;;;;;;14.60;12.83;;;;;13.70;102717.00;;;;10416308;27;20293;-80
2024/04/11 21:38:12;;;;;;;17.33;14.77;;;;;13.70;102734.00;;;;10454948;28;20267;-85
2024/04/11 21:43:14;;;;;;;16.83;14.90;;;;;13.70;102731.00;;;;10436450;28;20271;-86
2024/04/11 21:48:17;;;;;;;21.00;17.23;;;;;13.70;102726.00;;;;10428806;27;20377;-85
2024/04/11 21:53:19;;;;;;;21.57;16.10;;;;;13.70;102720.00;;;;10434184;27;20293;-86
2024/04/11 21:58:21;;;;;;;19.07;15.83;;;;;13.80;102734.00;;;;10416011;27;20363;-86
2024/04/11 22:03:23;;;;;;;24.93;16.83;;;;;13.80;102745.00;;;;10411595;28;20271;-85
2024/04/11 22:08:30;;;;;;;22.37;18.07;;;;;13.80;102738.00;;;;10408336;28;20631;-85
2024/04/11 22:13:36;;;;;;;23.10;17.93;;;;;13.70;102736.00;;;;10395641;28;20362;-87
2024/04/11 22:18:40;;;;;;;24.87;16.63;;;;;13.80;102739.00;;;;10432036;28;20263;-85
2024/04/11 22:23:44;;;;;;;20.13;16.42;;;;;13.80;102742.00;;;;10435915;27;20264;-85
2024/04/11 22:28:46;;;;;;;23.67;17.40;;;;;13.80;102759.00;;;;10430854;28;20271;-85
2024/04/11 22:33:49;;;;;;;20.37;16.57;;;;;13.80;102748.00;;;;10419462;27;20270;-84
2024/04/11 22:38:53;;;;;;;21.97;15.40;;;;;13.80;102752.00;;;;10433794;28;20747;-85
2024/04/11 22:43:56;;;;;;;21.93;14.57;;;;;13.80;102750.00;;;;10421774;28;20271;-86
2024/04/11 22:48:59;;;;;;;16.87;12.83;;;;;13.80;102736.00;;;;10408457;28;20852;-85
2024/04/11 22:54:05;;;;;;;16.13;12.90;;;;;13.80;102729.00;;;;10401589;28;20266;-86
2024/04/11 22:59:34;;;;;;;18.67;12.57;;;;;13.80;102743.00;;;;10421316;28;20270;-85
2024/04/11 23:04:46;;;;;;;21.03;14.37;;;;;13.80;102742.00;;;;10438206;28;20372;-85
2024/04/11 23:09:53;;;;;;;17.17;12.93;;;;;13.80;102748.00;;;;10451865;27;20364;-85
2024/04/11 23:15:10;;;;;;;17.33;13.40;;;;;13.80;102748.00;;;;10439058;28;20317;-84
2024/04/11 23:20:23;;;;;;;19.03;13.37;;;;;13.80;102748.00;;;;10444377;28;21215;-83
2024/04/11 23:25:28;;;;;;;24.00;14.97;;;;;13.80;102743.00;;;;10431742;28;20263;-82
2024/04/11 23:30:37;;;;;;;16.90;13.03;;;;;13.80;102744.00;;;;10438440;28;20290;-82
2024/04/11 23:35:48;;;;;;;18.30;14.33;;;;;13.80;102739.00;;;;10437506;27;20271;-82
2024/04/11 23:40:51;;;;;;;16.93;12.93;;;;;13.80;102731.00;;;;10443159;28;20334;-82
2024/04/11 23:46:00;;;;;;;17.30;12.70;;;;;13.80;102728.00;;;;10435844;27;20271;-82
2024/04/11 23:51:04;;;;;;;19.60;13.70;;;;;13.80;102719.00;;;;10448424;28;20276;-82
